TimeEDT,TemperatureF,Dew PointF,Humidity,Sea Level PressureIn,VisibilityMPH,Wind Direction,Wind SpeedMPH,Gust SpeedMPH,PrecipitationIn,Events,Conditions,WindDirDegrees,DateUTC
12:41 AM,71.6,71.6,100,30.20,9.0,SW,4.6,-,N/A,,Overcast,230,2013-07-09 04:41:00
12:53 AM,72.0,71.1,97,30.17,9.0,SW,4.6,-,N/A,,Overcast,230,2013-07-09 04:53:00
1:04 AM,71.6,71.6,100,30.20,9.0,Calm,Calm,-,N/A,,Scattered Clouds,0,2013-07-09 05:04:00
1:18 AM,71.6,71.6,100,30.19,10.0,WSW,3.5,-,N/A,,Mostly Cloudy,250,2013-07-09 05:18:00
1:26 AM,71.6,71.6,100,30.19,9.0,West,4.6,-,N/A,,Partly Cloudy,260,2013-07-09 05:26:00
1:53 AM,71.1,70.0,96,30.14,10.0,Calm,Calm,-,N/A,,Partly Cloudy,0,2013-07-09 05:53:00
2:14 AM,71.6,69.8,94,30.18,10.0,SW,3.5,-,N/A,,Mostly Cloudy,230,2013-07-09 06:14:00
2:21 AM,71.6,69.8,94,30.18,10.0,SW,3.5,-,N/A,,Mostly Cloudy,230,2013-07-09 06:21:00
2:33 AM,71.6,69.8,94,30.18,10.0,Calm,Calm,-,N/A,,Overcast,0,2013-07-09 06:33:00
2:42 AM,71.6,69.8,94,30.18,10.0,South,3.5,-,N/A,,Mostly Cloudy,190,2013-07-09 06:42:00
2:53 AM,71.1,70.0,96,30.14,10.0,SSW,3.5,-,N/A,,Scattered Clouds,210,2013-07-09 06:53:00
3:53 AM,70.0,69.1,97,30.14,10.0,SW,8.1,-,N/A,,Mostly Cloudy,220,2013-07-09 07:53:00
4:49 AM,69.8,69.8,100,30.15,10.0,Calm,Calm,-,N/A,,Scattered Clouds,0,2013-07-09 08:49:00
4:53 AM,70.0,69.1,97,30.12,10.0,Calm,Calm,-,N/A,,Mostly Cloudy,0,2013-07-09 08:53:00
5:53 AM,70.0,69.1,97,30.12,10.0,Calm,Calm,-,N/A,,Overcast,0,2013-07-09 09:53:00
6:46 AM,71.6,69.8,94,30.16,10.0,South,10.4,-,N/A,,Overcast,190,2013-07-09 10:46:00
6:53 AM,71.1,70.0,96,30.13,10.0,South,9.2,-,N/A,,Overcast,190,2013-07-09 10:53:00
7:01 AM,71.6,69.8,94,30.16,10.0,SSW,8.1,-,N/A,,Mostly Cloudy,210,2013-07-09 11:01:00
7:16 AM,71.6,69.8,94,30.16,10.0,West,3.5,-,N/A,,Scattered Clouds,260,2013-07-09 11:16:00
7:53 AM,73.0,70.0,90,30.14,10.0,West,4.6,-,N/A,,Scattered Clouds,260,2013-07-09 11:53:00
8:53 AM,75.9,71.1,85,30.15,10.0,West,5.8,-,N/A,,Partly Cloudy,270,2013-07-09 12:53:00
9:53 AM,80.1,72.0,76,30.15,10.0,Variable,3.5,-,N/A,,Partly Cloudy,0,2013-07-09 13:53:00
10:07 AM,78.8,71.6,78,30.18,10.0,Variable,6.9,-,N/A,,Mostly Cloudy,0,2013-07-09 14:07:00
10:53 AM,82.0,73.0,74,30.15,10.0,Variable,4.6,-,N/A,,Scattered Clouds,0,2013-07-09 14:53:00
11:53 AM,82.9,72.0,69,30.15,10.0,Variable,6.9,-,N/A,,Mostly Cloudy,0,2013-07-09 15:53:00
12:53 PM,84.0,73.9,72,30.14,10.0,Calm,Calm,-,N/A,,Mostly Cloudy,0,2013-07-09 16:53:00
1:53 PM,84.9,73.0,67,30.13,10.0,SW,6.9,-,N/A,,Mostly Cloudy,220,2013-07-09 17:53:00
2:42 PM,87.8,73.4,62,30.14,10.0,SSW,9.2,-,N/A,,Mostly Cloudy,210,2013-07-09 18:42:00
2:51 PM,86.0,73.4,66,30.14,10.0,Variable,4.6,-,N/A,,Scattered Clouds,0,2013-07-09 18:51:00
2:53 PM,84.9,72.0,65,30.10,10.0,Calm,Calm,-,N/A,,Mostly Cloudy,0,2013-07-09 18:53:00
3:53 PM,86.0,73.0,65,30.08,10.0,SW,5.8,-,N/A,,Mostly Cloudy,230,2013-07-09 19:53:00
4:53 PM,89.1,73.0,59,30.06,10.0,WSW,6.9,-,N/A,,Scattered Clouds,240,2013-07-09 20:53:00
5:53 PM,87.1,72.0,61,30.05,10.0,South,8.1,-,N/A,,Scattered Clouds,180,2013-07-09 21:53:00
6:53 PM,84.9,72.0,65,30.05,10.0,SW,6.9,-,N/A,,Scattered Clouds,220,2013-07-09 22:53:00
7:53 PM,82.9,72.0,69,30.05,10.0,SW,6.9,-,N/A,,Clear,220,2013-07-09 23:53:00
8:53 PM,80.1,73.9,81,30.06,10.0,South,3.5,-,N/A,Thunderstorm,Mostly Cloudy,170,2013-07-10 00:53:00
9:17 PM,75.2,71.6,89,30.13,2.0,WSW,11.5,24.2,0.29,Rain-Thunderstorm,Heavy Thunderstorms and Rain,240,2013-07-10 01:17:00
9:34 PM,71.6,69.8,94,30.13,0.5,South,19.6,31.1,1.83,Fog-Rain-Thunderstorm,Heavy Thunderstorms and Rain,190,2013-07-10 01:34:00
9:53 PM,72.0,71.1,97,30.12,1.8,South,9.2,-,2.28,Rain-Thunderstorm,Heavy Thunderstorms and Rain,170,2013-07-10 01:53:00
10:00 PM,73.4,71.6,94,30.16,2.0,South,9.2,-,0.06,Rain-Thunderstorm,Heavy Rain,180,2013-07-10 02:00:00
10:13 PM,73.4,71.6,94,30.16,2.0,South,10.4,-,0.10,Rain-Thunderstorm,Rain,170,2013-07-10 02:13:00
10:24 PM,73.4,71.6,94,30.16,2.0,South,13.8,-,0.13,Rain-Thunderstorm,Light Rain,170,2013-07-10 02:24:00
10:33 PM,73.4,71.6,94,30.16,6.0,South,11.5,-,0.13,Rain-Thunderstorm,Light Thunderstorms and Rain,180,2013-07-10 02:33:00
10:49 PM,73.4,71.6,94,30.13,9.0,SSW,11.5,-,0.14,Rain,Light Rain,200,2013-07-10 02:49:00
10:53 PM,73.0,72.0,96,30.09,9.0,SSW,10.4,-,0.14,Rain,Light Rain,210,2013-07-10 02:53:00
11:44 PM,73.4,71.6,94,30.14,10.0,ESE,5.8,-,0.00,,Mostly Cloudy,120,2013-07-10 03:44:00
11:53 PM,73.0,71.1,93,30.12,10.0,ENE,4.6,-,0.00,,Mostly Cloudy,60,2013-07-10 03:53:00